createdAt,value
2017-08-06T00:00:15.881Z,821.57
2017-08-06T00:01:16.500Z,821.56
2017-08-06T00:02:17.122Z,821.59
2017-08-06T00:03:17.993Z,821.61
2017-08-06T00:04:18.607Z,821.60
2017-08-06T00:05:19.223Z,821.67
2017-08-06T00:06:19.841Z,821.64
2017-08-06T00:07:20.466Z,821.65
2017-08-06T00:08:21.330Z,821.63
2017-08-06T00:09:21.955Z,821.62
2017-08-06T00:10:22.568Z,821.63
2017-08-06T00:11:23.191Z,821.59
2017-08-06T00:12:23.803Z,821.62
2017-08-06T00:13:24.672Z,821.60
2017-08-06T00:14:25.295Z,821.64
2017-08-06T00:15:25.910Z,821.62
2017-08-06T00:16:26.528Z,821.61
2017-08-06T00:17:27.181Z,821.59
2017-08-06T00:18:28.102Z,821.61
2017-08-06T00:19:28.715Z,821.59
2017-08-06T00:20:29.370Z,821.63
2017-08-06T00:21:29.984Z,821.62
2017-08-06T00:22:30.606Z,821.63
2017-08-06T00:23:31.520Z,821.65
2017-08-06T00:24:32.139Z,821.69
2017-08-06T00:25:32.758Z,821.70
2017-08-06T00:26:33.375Z,821.69
2017-08-06T00:27:33.992Z,821.67
2017-08-06T00:28:34.915Z,821.67
2017-08-06T00:29:35.530Z,821.68
2017-08-06T00:30:36.146Z,821.70
2017-08-06T00:31:36.770Z,821.70
2017-08-06T00:32:37.387Z,821.71
2017-08-06T00:33:38.301Z,821.69
2017-08-06T00:34:38.925Z,821.66
2017-08-06T00:35:39.538Z,821.60
2017-08-06T00:36:40.155Z,821.61
2017-08-06T00:37:40.773Z,821.62
2017-08-06T00:38:41.648Z,821.64
2017-08-06T00:39:42.262Z,821.63
2017-08-06T00:40:42.879Z,821.60
2017-08-06T00:41:43.496Z,821.60
2017-08-06T00:42:44.119Z,821.59
2017-08-06T00:43:45.068Z,821.58
2017-08-06T00:44:45.684Z,821.57
2017-08-06T00:45:46.301Z,821.52
2017-08-06T00:46:46.926Z,821.50
2017-08-06T00:47:47.546Z,821.51
2017-08-06T00:48:48.413Z,821.53
2017-08-06T00:49:49.062Z,821.54
2017-08-06T00:50:49.677Z,821.52
2017-08-06T00:51:50.295Z,821.54
2017-08-06T00:52:50.913Z,821.49
2017-08-06T00:53:51.835Z,821.51
2017-08-06T00:54:52.447Z,821.54
2017-08-06T00:55:53.072Z,821.51
2017-08-06T00:56:53.692Z,821.51
2017-08-06T00:57:54.313Z,821.52
2017-08-06T00:58:55.176Z,821.53
2017-08-06T00:59:55.793Z,821.54
2017-08-06T01:00:56.409Z,821.52
2017-08-06T01:01:57.026Z,821.52
2017-08-06T01:02:57.644Z,821.52
2017-08-06T01:03:58.563Z,821.51
2017-08-06T01:04:59.184Z,821.54
2017-08-06T01:05:59.799Z,821.52
2017-08-06T01:07:00.421Z,821.51
2017-08-06T01:08:01.034Z,821.49
2017-08-06T01:09:01.901Z,821.52
2017-08-06T01:10:02.517Z,821.50
2017-08-06T01:11:03.169Z,821.51
2017-08-06T01:12:03.792Z,821.50
2017-08-06T01:13:04.407Z,821.54
2017-08-06T01:14:05.274Z,821.53
2017-08-06T01:15:05.891Z,821.55
2017-08-06T01:16:06.513Z,821.55
2017-08-06T01:17:07.129Z,821.53
2017-08-06T01:18:07.742Z,821.52
2017-08-06T01:19:08.609Z,821.50
2017-08-06T01:20:09.225Z,821.48
2017-08-06T01:21:09.849Z,821.46
2017-08-06T01:22:10.465Z,821.48
2017-08-06T01:23:11.082Z,821.48
2017-08-06T01:24:11.998Z,821.46
2017-08-06T01:25:12.622Z,821.46
2017-08-06T01:26:13.276Z,821.47
2017-08-06T01:27:13.894Z,821.47
2017-08-06T01:28:14.506Z,821.47
2017-08-06T01:29:15.425Z,821.44
2017-08-06T01:30:16.048Z,821.39
2017-08-06T01:31:16.668Z,821.42
2017-08-06T01:32:17.284Z,821.40
2017-08-06T01:33:17.898Z,821.41
2017-08-06T01:34:18.815Z,821.40
2017-08-06T01:35:19.470Z,821.40
2017-08-06T01:36:20.086Z,821.43
2017-08-06T01:37:20.713Z,821.45
2017-08-06T01:38:21.321Z,821.40
2017-08-06T01:39:22.186Z,821.45
2017-08-06T01:40:22.802Z,821.43
2017-08-06T01:41:23.420Z,821.43
2017-08-06T01:42:24.037Z,821.43
2017-08-06T01:43:24.652Z,821.46
2017-08-06T01:44:25.519Z,821.43
2017-08-06T01:45:26.135Z,821.42
2017-08-06T01:46:26.751Z,821.45
2017-08-06T01:47:27.368Z,821.45
2017-08-06T01:48:27.986Z,821.42
2017-08-06T01:49:28.901Z,821.43
2017-08-06T01:50:29.519Z,821.42
2017-08-06T01:51:30.137Z,821.43
2017-08-06T01:52:30.752Z,821.43
2017-08-06T01:53:31.369Z,821.46
2017-08-06T01:54:32.245Z,821.44
2017-08-06T01:55:32.863Z,821.42
2017-08-06T01:56:33.475Z,821.42
2017-08-06T01:57:34.097Z,821.41
2017-08-06T01:58:34.710Z,821.45
2017-08-06T01:59:35.576Z,821.42
2017-08-06T02:00:36.193Z,821.41
2017-08-06T02:01:36.808Z,821.42
2017-08-06T02:02:37.457Z,821.41
2017-08-06T02:03:38.074Z,821.45
2017-08-06T02:04:38.942Z,821.40
2017-08-06T02:05:39.557Z,821.44
2017-08-06T02:06:40.177Z,821.45
2017-08-06T02:07:40.799Z,821.40
2017-08-06T02:08:41.452Z,821.39
2017-08-06T02:09:42.376Z,821.40
2017-08-06T02:10:43.023Z,821.35
2017-08-06T02:11:43.646Z,821.33
2017-08-06T02:12:44.265Z,821.33
2017-08-06T02:13:44.878Z,821.33
2017-08-06T02:14:45.796Z,821.30
2017-08-06T02:15:46.417Z,821.29
2017-08-06T02:16:47.032Z,821.25
2017-08-06T02:17:47.648Z,821.30
2017-08-06T02:18:48.265Z,821.29
2017-08-06T02:19:49.182Z,821.28
2017-08-06T02:20:49.805Z,821.25
2017-08-06T02:21:50.417Z,821.22
2017-08-06T02:22:51.074Z,821.18
2017-08-06T02:23:51.688Z,821.18
2017-08-06T02:24:52.604Z,821.18
2017-08-06T02:25:53.224Z,821.19
2017-08-06T02:26:53.877Z,821.16
2017-08-06T02:27:54.495Z,821.13
2017-08-06T02:28:55.144Z,821.10
2017-08-06T02:29:56.094Z,821.09
2017-08-06T02:30:56.716Z,821.10
2017-08-06T02:31:57.329Z,821.10
2017-08-06T02:32:57.980Z,821.12
2017-08-06T02:33:58.598Z,821.08
2017-08-06T02:34:59.517Z,821.06
2017-08-06T02:36:00.132Z,821.09
2017-08-06T02:37:00.754Z,821.13
2017-08-06T02:38:01.368Z,821.12
2017-08-06T02:39:01.988Z,821.10
2017-08-06T02:40:02.890Z,821.08
2017-08-06T02:41:03.502Z,821.08
2017-08-06T02:42:04.124Z,821.11
2017-08-06T02:43:04.740Z,821.10
2017-08-06T02:44:05.357Z,821.09
2017-08-06T02:45:06.274Z,821.11
2017-08-06T02:46:06.891Z,821.09
2017-08-06T02:47:07.508Z,821.16
2017-08-06T02:48:08.123Z,821.15
2017-08-06T02:49:08.740Z,821.17
2017-08-06T02:50:09.659Z,821.16
2017-08-06T02:51:10.275Z,821.21
2017-08-06T02:52:10.892Z,821.21
2017-08-06T02:53:11.513Z,821.22
2017-08-06T02:54:12.127Z,821.20
2017-08-06T02:55:13.049Z,821.20
2017-08-06T02:56:13.662Z,821.23
2017-08-06T02:57:14.280Z,821.19
2017-08-06T02:58:14.902Z,821.17
2017-08-06T02:59:15.520Z,821.18
2017-08-06T03:00:16.382Z,821.20
2017-08-06T03:01:17.000Z,821.23
2017-08-06T03:02:17.649Z,821.23
2017-08-06T03:03:18.266Z,821.23
2017-08-06T03:04:18.888Z,821.29
2017-08-06T03:05:19.803Z,821.29
2017-08-06T03:06:20.426Z,821.31
2017-08-06T03:07:21.039Z,821.30
2017-08-06T03:08:21.655Z,821.28
2017-08-06T03:09:22.278Z,821.32
2017-08-06T03:10:23.190Z,821.30
2017-08-06T03:11:23.807Z,821.33
2017-08-06T03:12:24.424Z,821.34
2017-08-06T03:13:25.044Z,821.37
2017-08-06T03:14:25.658Z,821.33
2017-08-06T03:15:26.523Z,821.36
2017-08-06T03:16:27.174Z,821.33
2017-08-06T03:17:27.795Z,821.38
2017-08-06T03:18:28.442Z,821.36
2017-08-06T03:19:29.059Z,821.40
2017-08-06T03:20:29.975Z,821.40
2017-08-06T03:21:30.596Z,821.36
2017-08-06T03:22:31.210Z,821.39
2017-08-06T03:23:31.831Z,821.36
2017-08-06T03:24:32.445Z,821.37
2017-08-06T03:25:33.318Z,821.40
2017-08-06T03:26:33.930Z,821.37
2017-08-06T03:27:34.552Z,821.34
2017-08-06T03:28:35.165Z,821.37
2017-08-06T03:29:35.787Z,821.34
2017-08-06T03:30:36.664Z,821.33
2017-08-06T03:31:37.315Z,821.35
2017-08-06T03:32:37.930Z,821.39
2017-08-06T03:33:38.550Z,821.40
2017-08-06T03:34:39.163Z,821.37
2017-08-06T03:35:40.029Z,821.34
2017-08-06T03:36:40.646Z,821.37
2017-08-06T03:37:41.272Z,821.33
2017-08-06T03:38:41.917Z,821.30
2017-08-06T03:39:42.532Z,821.31
2017-08-06T03:40:43.398Z,821.29
2017-08-06T03:41:44.024Z,821.29
2017-08-06T03:42:44.636Z,821.31
2017-08-06T03:43:45.257Z,821.31
2017-08-06T03:44:45.870Z,821.29
2017-08-06T03:45:46.737Z,821.31
2017-08-06T03:46:47.352Z,821.33
2017-08-06T03:47:48.005Z,821.28
2017-08-06T03:48:48.616Z,821.27
2017-08-06T03:49:49.231Z,821.26
2017-08-06T03:50:50.097Z,821.26
2017-08-06T03:51:50.712Z,821.22
2017-08-06T03:52:51.329Z,821.29
2017-08-06T03:53:51.953Z,821.25
2017-08-06T03:54:52.572Z,821.25
2017-08-06T03:55:53.485Z,821.29
2017-08-06T03:56:54.110Z,821.33
2017-08-06T03:57:54.727Z,821.34
2017-08-06T03:58:55.334Z,821.30
2017-08-06T03:59:55.952Z,821.33
2017-08-06T04:00:56.902Z,821.33
2017-08-06T04:01:57.520Z,821.32
2017-08-06T04:02:58.134Z,821.35
2017-08-06T04:03:58.750Z,821.36
2017-08-06T04:04:59.372Z,821.35
2017-08-06T04:06:00.285Z,821.35
2017-08-06T04:07:00.905Z,821.34
2017-08-06T04:08:01.517Z,821.30
2017-08-06T04:09:02.135Z,821.30
2017-08-06T04:10:02.786Z,821.29
2017-08-06T04:11:03.652Z,821.26
2017-08-06T04:12:04.303Z,821.28
2017-08-06T04:13:04.921Z,821.22
2017-08-06T04:14:05.535Z,821.24
2017-08-06T04:15:06.151Z,821.27
2017-08-06T04:16:07.018Z,821.25
2017-08-06T04:17:07.640Z,821.24
2017-08-06T04:18:08.258Z,821.23
2017-08-06T04:19:08.872Z,821.21
2017-08-06T04:20:09.490Z,821.22
2017-08-06T04:21:10.391Z,821.15
2017-08-06T04:22:11.009Z,821.16
2017-08-06T04:23:11.629Z,821.12
2017-08-06T04:24:12.282Z,821.18
2017-08-06T04:25:12.894Z,821.20
2017-08-06T04:26:13.811Z,821.19
2017-08-06T04:27:14.429Z,821.24
2017-08-06T04:28:15.040Z,821.24
2017-08-06T04:29:15.662Z,821.27
2017-08-06T04:30:16.277Z,821.24
2017-08-06T04:31:17.190Z,821.21
2017-08-06T04:32:17.806Z,821.24
2017-08-06T04:33:18.423Z,821.23
2017-08-06T04:34:19.071Z,821.20
2017-08-06T04:35:19.692Z,821.22
2017-08-06T04:36:20.606Z,821.19
2017-08-06T04:37:21.223Z,821.20
2017-08-06T04:38:21.840Z,821.15
2017-08-06T04:39:22.457Z,821.12
2017-08-06T04:40:23.073Z,821.07
2017-08-06T04:41:23.972Z,821.07
2017-08-06T04:42:24.594Z,821.05
2017-08-06T04:43:25.209Z,821.04
2017-08-06T04:44:25.829Z,821.03
2017-08-06T04:45:26.477Z,821.03
2017-08-06T04:46:27.344Z,821.05
2017-08-06T04:47:27.965Z,821.04
2017-08-06T04:48:28.587Z,821.00
2017-08-06T04:49:29.202Z,821.00
2017-08-06T04:50:29.852Z,821.01
2017-08-06T04:51:30.718Z,821.01
2017-08-06T04:52:31.336Z,821.01
2017-08-06T04:53:31.951Z,821.00
2017-08-06T04:54:32.574Z,821.00
2017-08-06T04:55:33.188Z,820.98
2017-08-06T04:56:34.106Z,821.01
2017-08-06T04:57:34.723Z,821.00
2017-08-06T04:58:35.339Z,820.97
2017-08-06T04:59:35.961Z,821.01
2017-08-06T05:00:36.586Z,821.00
2017-08-06T05:01:37.443Z,821.01
2017-08-06T05:02:38.061Z,821.02
2017-08-06T05:03:38.680Z,821.01
2017-08-06T05:04:39.296Z,821.02
2017-08-06T05:05:39.912Z,821.04
2017-08-06T05:06:40.785Z,821.05
2017-08-06T05:07:41.405Z,821.05
2017-08-06T05:08:42.020Z,821.08
2017-08-06T05:09:42.637Z,821.09
2017-08-06T05:10:43.254Z,821.08
2017-08-06T05:11:44.170Z,821.14
2017-08-06T05:12:44.785Z,821.14
2017-08-06T05:13:45.404Z,821.15
2017-08-06T05:14:46.018Z,821.19
2017-08-06T05:15:46.636Z,821.17
2017-08-06T05:16:47.505Z,821.17
2017-08-06T05:17:48.124Z,821.18
2017-08-06T05:18:48.741Z,821.19
2017-08-06T05:19:49.364Z,821.20
2017-08-06T05:20:49.977Z,821.21
2017-08-06T05:21:50.932Z,821.18
2017-08-06T05:22:51.554Z,821.20
2017-08-06T05:23:52.169Z,821.20
2017-08-06T05:24:52.790Z,821.15
2017-08-06T05:25:53.405Z,821.21
2017-08-06T05:26:54.322Z,821.16
2017-08-06T05:27:54.940Z,821.19
2017-08-06T05:28:55.561Z,821.17
2017-08-06T05:29:56.177Z,821.17
2017-08-06T05:30:56.828Z,821.19
2017-08-06T05:31:57.694Z,821.18
2017-08-06T05:32:58.311Z,821.17
2017-08-06T05:33:58.931Z,821.21
2017-08-06T05:34:59.547Z,821.18
2017-08-06T05:36:00.162Z,821.21
2017-08-06T05:37:01.089Z,821.21
2017-08-06T05:38:01.706Z,821.22
2017-08-06T05:39:02.321Z,821.23
2017-08-06T05:40:02.968Z,821.23
2017-08-06T05:41:03.623Z,821.22
2017-08-06T05:42:04.538Z,821.26
2017-08-06T05:43:05.153Z,821.26
2017-08-06T05:44:05.769Z,821.29
2017-08-06T05:45:06.420Z,821.32
2017-08-06T05:46:07.036Z,821.31
2017-08-06T05:47:07.960Z,821.30
2017-08-06T05:48:08.573Z,821.28
2017-08-06T05:49:09.190Z,821.28
2017-08-06T05:50:09.807Z,821.31
2017-08-06T05:51:10.425Z,821.28
2017-08-06T05:52:11.347Z,821.31
2017-08-06T05:53:11.969Z,821.34
2017-08-06T05:54:12.583Z,821.36
2017-08-06T05:55:13.201Z,821.36
2017-08-06T05:56:13.818Z,821.32
2017-08-06T05:57:14.685Z,821.32
2017-08-06T05:58:15.305Z,821.34
2017-08-06T05:59:15.933Z,821.34
2017-08-06T06:00:16.549Z,821.36
2017-08-06T06:01:17.174Z,821.37
2017-08-06T06:02:18.089Z,821.38
2017-08-06T06:03:18.717Z,821.32
2017-08-06T06:04:19.338Z,821.28
2017-08-06T06:05:19.952Z,821.27
2017-08-06T06:06:20.569Z,821.31
2017-08-06T06:07:21.487Z,821.30
2017-08-06T06:08:22.105Z,821.33
2017-08-06T06:09:22.725Z,821.40
2017-08-06T06:10:23.340Z,821.38
2017-08-06T06:11:23.958Z,821.40
2017-08-06T06:12:24.829Z,821.41
2017-08-06T06:13:25.444Z,821.40
2017-08-06T06:14:26.060Z,821.44
2017-08-06T06:15:26.682Z,821.46
2017-08-06T06:16:27.303Z,821.45
2017-08-06T06:17:28.222Z,821.47
2017-08-06T06:18:28.885Z,821.51
2017-08-06T06:19:29.489Z,821.50
2017-08-06T06:20:30.107Z,821.51
2017-08-06T06:21:30.754Z,821.49
2017-08-06T06:22:31.677Z,821.48
2017-08-06T06:23:32.290Z,821.46
2017-08-06T06:24:32.941Z,821.50
2017-08-06T06:25:33.565Z,821.46
2017-08-06T06:26:34.187Z,821.45
2017-08-06T06:27:35.056Z,821.46
2017-08-06T06:28:35.675Z,821.44
2017-08-06T06:29:36.295Z,821.45
2017-08-06T06:30:36.946Z,821.41
2017-08-06T06:31:37.572Z,821.42
2017-08-06T06:32:38.489Z,821.41
2017-08-06T06:33:39.108Z,821.42
2017-08-06T06:34:39.727Z,821.43
2017-08-06T06:35:40.347Z,821.40
2017-08-06T06:36:40.970Z,821.35
2017-08-06T06:37:41.837Z,821.38
2017-08-06T06:38:42.463Z,821.37
2017-08-06T06:39:43.120Z,821.39
2017-08-06T06:40:43.740Z,821.39
2017-08-06T06:41:44.364Z,821.37
2017-08-06T06:42:45.230Z,821.41
2017-08-06T06:43:45.849Z,821.39
2017-08-06T06:44:46.474Z,821.40
2017-08-06T06:45:47.092Z,821.44
2017-08-06T06:46:47.712Z,821.48
2017-08-06T06:47:48.632Z,821.47
2017-08-06T06:48:49.253Z,821.47
2017-08-06T06:49:49.873Z,821.45
2017-08-06T06:50:50.494Z,821.45
2017-08-06T06:51:51.114Z,821.47
2017-08-06T06:52:51.982Z,821.48
2017-08-06T06:53:52.599Z,821.49
2017-08-06T06:54:53.226Z,821.44
2017-08-06T06:55:53.841Z,821.51
2017-08-06T06:56:54.462Z,821.52
2017-08-06T06:57:55.339Z,821.53
2017-08-06T06:58:55.956Z,821.52
2017-08-06T06:59:56.573Z,821.55
2017-08-06T07:00:57.192Z,821.55
2017-08-06T07:01:57.813Z,821.52
2017-08-06T07:02:58.739Z,821.50
2017-08-06T07:03:59.356Z,821.50
2017-08-06T07:04:59.978Z,821.49
2017-08-06T07:06:00.598Z,821.46
2017-08-06T07:07:01.219Z,821.50
2017-08-06T07:08:02.140Z,821.49
2017-08-06T07:09:02.758Z,821.53
2017-08-06T07:10:03.385Z,821.54
2017-08-06T07:11:04.004Z,821.54
2017-08-06T07:12:04.626Z,821.55
2017-08-06T07:13:05.496Z,821.53
2017-08-06T07:14:06.119Z,821.53
2017-08-06T07:15:06.742Z,821.49
2017-08-06T07:16:07.364Z,821.46
2017-08-06T07:17:07.987Z,821.43
2017-08-06T07:18:08.938Z,821.43
2017-08-06T07:19:09.562Z,821.41
2017-08-06T07:20:10.181Z,821.41
2017-08-06T07:21:10.806Z,821.39
2017-08-06T07:22:11.430Z,821.39
2017-08-06T07:23:12.294Z,821.42
2017-08-06T07:24:12.915Z,821.40
2017-08-06T07:25:13.536Z,821.41
2017-08-06T07:26:14.156Z,821.43
2017-08-06T07:27:14.783Z,821.43
2017-08-06T07:28:15.734Z,821.42
2017-08-06T07:29:16.359Z,821.42
2017-08-06T07:30:17.015Z,821.49
2017-08-06T07:31:17.635Z,821.47
2017-08-06T07:32:18.254Z,821.46
2017-08-06T07:33:19.207Z,821.48
2017-08-06T07:34:19.832Z,821.49
2017-08-06T07:35:20.458Z,821.52
2017-08-06T07:36:21.076Z,821.52
2017-08-06T07:37:21.695Z,821.50
2017-08-06T07:38:22.567Z,821.54
2017-08-06T07:39:23.226Z,821.48
2017-08-06T07:40:23.852Z,821.52
2017-08-06T07:41:24.473Z,821.51
2017-08-06T07:42:25.089Z,821.49
2017-08-06T07:43:26.060Z,821.56
2017-08-06T07:44:26.686Z,821.58
2017-08-06T07:45:27.302Z,821.58
2017-08-06T07:46:27.923Z,821.58
2017-08-06T07:47:28.541Z,821.62
2017-08-06T07:48:29.461Z,821.55
2017-08-06T07:49:30.083Z,821.57
2017-08-06T07:50:30.708Z,821.57
2017-08-06T07:51:31.329Z,821.52
2017-08-06T07:52:31.944Z,821.53
2017-08-06T07:53:32.866Z,821.55
2017-08-06T07:54:33.485Z,821.57
2017-08-06T07:55:34.105Z,821.56
2017-08-06T07:56:34.725Z,821.57
2017-08-06T07:57:35.353Z,821.57
2017-08-06T07:58:36.273Z,821.53
2017-08-06T07:59:36.891Z,821.49
2017-08-06T08:00:37.510Z,821.49
2017-08-06T08:01:38.134Z,821.53
2017-08-06T08:02:38.753Z,821.50
2017-08-06T08:03:39.623Z,821.49
2017-08-06T08:04:40.242Z,821.42
2017-08-06T08:05:40.866Z,821.40
2017-08-06T08:06:41.486Z,821.38
2017-08-06T08:07:42.108Z,821.42
2017-08-06T08:08:43.013Z,821.44
2017-08-06T08:09:43.639Z,821.45
2017-08-06T08:10:44.290Z,821.44
2017-08-06T08:11:44.911Z,821.50
2017-08-06T08:12:45.529Z,821.50
2017-08-06T08:13:46.450Z,821.52
2017-08-06T08:14:47.072Z,821.49
2017-08-06T08:15:47.692Z,821.51
2017-08-06T08:16:48.314Z,821.48
2017-08-06T08:17:48.933Z,821.49
2017-08-06T08:18:49.854Z,821.47
2017-08-06T08:19:50.510Z,821.46
2017-08-06T08:20:51.130Z,821.47
2017-08-06T08:21:51.751Z,821.43
2017-08-06T08:22:52.371Z,821.43
2017-08-06T08:23:53.298Z,821.51
2017-08-06T08:24:53.915Z,821.48
2017-08-06T08:25:54.537Z,821.49
2017-08-06T08:26:55.156Z,821.50
2017-08-06T08:27:55.782Z,821.47
2017-08-06T08:28:56.702Z,821.45
2017-08-06T08:29:57.327Z,821.48
2017-08-06T08:30:57.948Z,821.51
2017-08-06T08:31:58.570Z,821.49
2017-08-06T08:32:59.224Z,821.48
2017-08-06T08:34:00.160Z,821.40
2017-08-06T08:35:00.766Z,821.41
2017-08-06T08:36:01.386Z,821.39
2017-08-06T08:37:02.004Z,821.36
2017-08-06T08:38:02.626Z,821.44
2017-08-06T08:39:03.547Z,821.45
2017-08-06T08:40:04.168Z,821.49
2017-08-06T08:41:04.788Z,821.47
2017-08-06T08:42:05.411Z,821.49
2017-08-06T08:43:06.030Z,821.49
2017-08-06T08:44:06.949Z,821.46
2017-08-06T08:45:07.574Z,821.48
2017-08-06T08:46:08.193Z,821.50
2017-08-06T08:47:08.815Z,821.50
2017-08-06T08:48:09.439Z,821.47
2017-08-06T08:49:10.358Z,821.49
2017-08-06T08:50:10.983Z,821.52
2017-08-06T08:51:11.608Z,821.53
2017-08-06T08:52:12.259Z,821.56
2017-08-06T08:53:12.877Z,821.60
2017-08-06T08:54:13.797Z,821.60
2017-08-06T08:55:14.419Z,821.55
2017-08-06T08:56:15.040Z,821.51
2017-08-06T08:57:15.662Z,821.44
2017-08-06T08:58:16.286Z,821.46
2017-08-06T08:59:17.154Z,821.46
2017-08-06T09:00:17.774Z,821.46
2017-08-06T09:01:18.400Z,821.41
2017-08-06T09:02:19.021Z,821.40
2017-08-06T09:03:19.653Z,821.33
2017-08-06T09:04:20.577Z,821.37
2017-08-06T09:05:21.205Z,821.37
2017-08-06T09:06:21.815Z,821.38
2017-08-06T09:07:22.442Z,821.44
2017-08-06T09:08:23.058Z,821.42
2017-08-06T09:09:23.931Z,821.46
2017-08-06T09:10:24.554Z,821.50
2017-08-06T09:11:25.174Z,821.50
2017-08-06T09:12:25.824Z,821.51
2017-08-06T09:13:26.446Z,821.48
2017-08-06T09:14:27.316Z,821.50
2017-08-06T09:15:27.937Z,821.52
2017-08-06T09:16:28.565Z,821.49
2017-08-06T09:17:29.186Z,821.51
2017-08-06T09:18:29.810Z,821.52
2017-08-06T09:19:30.678Z,821.49
2017-08-06T09:20:31.298Z,821.49
2017-08-06T09:21:31.919Z,821.47
2017-08-06T09:22:32.544Z,821.43
2017-08-06T09:23:33.160Z,821.41
2017-08-06T09:24:34.063Z,821.36
2017-08-06T09:25:34.690Z,821.36
2017-08-06T09:26:35.308Z,821.36
2017-08-06T09:27:35.929Z,821.38
2017-08-06T09:28:36.554Z,821.39
2017-08-06T09:29:37.478Z,821.39
2017-08-06T09:30:38.100Z,821.36
2017-08-06T09:31:38.719Z,821.34
2017-08-06T09:32:39.340Z,821.29
2017-08-06T09:33:39.961Z,821.27
2017-08-06T09:34:40.831Z,821.32
2017-08-06T09:35:41.451Z,821.31
2017-08-06T09:36:42.080Z,821.28
2017-08-06T09:37:42.696Z,821.26
2017-08-06T09:38:43.317Z,821.25
2017-08-06T09:39:44.239Z,821.26
2017-08-06T09:40:44.864Z,821.29
2017-08-06T09:41:45.485Z,821.25
2017-08-06T09:42:46.105Z,821.26
2017-08-06T09:43:46.756Z,821.25
2017-08-06T09:44:47.679Z,821.27
2017-08-06T09:45:48.299Z,821.28
2017-08-06T09:46:48.922Z,821.26
2017-08-06T09:47:49.547Z,821.25
2017-08-06T09:48:50.166Z,821.22
2017-08-06T09:49:51.038Z,821.29
2017-08-06T09:50:51.699Z,821.28
2017-08-06T09:51:52.352Z,821.34
2017-08-06T09:52:53.006Z,821.32
2017-08-06T09:53:53.628Z,821.32
2017-08-06T09:54:54.551Z,821.22
2017-08-06T09:55:55.171Z,821.24
2017-08-06T09:56:55.792Z,821.24
2017-08-06T09:57:56.412Z,821.20
2017-08-06T09:58:57.032Z,821.21
2017-08-06T09:59:57.904Z,821.23
2017-08-06T10:00:58.525Z,821.29
2017-08-06T10:01:59.152Z,821.30
2017-08-06T10:02:59.771Z,821.31
2017-08-06T10:04:00.399Z,821.26
2017-08-06T10:05:01.357Z,821.28
2017-08-06T10:06:02.013Z,821.25
2017-08-06T10:07:02.637Z,821.22
2017-08-06T10:08:03.261Z,821.25
2017-08-06T10:09:03.881Z,821.26
2017-08-06T10:10:04.835Z,821.31
2017-08-06T10:11:05.456Z,821.28
2017-08-06T10:12:06.076Z,821.30
2017-08-06T10:13:06.697Z,821.27
2017-08-06T10:14:07.318Z,821.25
2017-08-06T10:15:08.276Z,821.27
2017-08-06T10:16:08.903Z,821.22
2017-08-06T10:17:09.527Z,821.25
2017-08-06T10:18:10.151Z,821.22
2017-08-06T10:19:10.772Z,821.21
2017-08-06T10:20:11.692Z,821.24
2017-08-06T10:21:12.313Z,821.26
2017-08-06T10:22:12.934Z,821.24
2017-08-06T10:23:13.556Z,821.30
2017-08-06T10:24:14.196Z,821.31
2017-08-06T10:25:15.102Z,821.35
2017-08-06T10:26:15.724Z,821.35
2017-08-06T10:27:16.343Z,821.36
2017-08-06T10:28:16.965Z,821.33
2017-08-06T10:29:17.590Z,821.32
2017-08-06T10:30:18.509Z,821.31
2017-08-06T10:31:19.131Z,821.31
2017-08-06T10:32:19.752Z,821.25
2017-08-06T10:33:20.412Z,821.29
2017-08-06T10:34:21.030Z,821.30
2017-08-06T10:35:21.904Z,821.27
2017-08-06T10:36:22.528Z,821.20
2017-08-06T10:37:23.187Z,821.25
2017-08-06T10:38:23.808Z,821.25
2017-08-06T10:39:24.429Z,821.21
2017-08-06T10:40:25.305Z,821.18
2017-08-06T10:41:25.924Z,821.19
2017-08-06T10:42:26.584Z,821.16
2017-08-06T10:43:27.207Z,821.17
2017-08-06T10:44:27.827Z,821.18
2017-08-06T10:45:28.749Z,821.11
2017-08-06T10:46:29.374Z,821.14
2017-08-06T10:47:29.995Z,821.15
2017-08-06T10:48:30.618Z,821.11
2017-08-06T10:49:31.271Z,821.13
2017-08-06T10:50:32.111Z,821.14
2017-08-06T10:51:32.765Z,821.13
2017-08-06T10:52:33.393Z,821.13
2017-08-06T10:53:34.011Z,821.12
2017-08-06T10:54:34.641Z,821.11
2017-08-06T10:55:35.565Z,821.13
2017-08-06T10:56:36.182Z,821.12
2017-08-06T10:57:36.813Z,821.14
2017-08-06T10:58:37.465Z,821.17
2017-08-06T10:59:38.088Z,821.15
2017-08-06T11:00:38.957Z,821.11
2017-08-06T11:01:39.579Z,821.12
2017-08-06T11:02:40.197Z,821.15
2017-08-06T11:03:40.825Z,821.10
2017-08-06T11:04:41.445Z,821.15
2017-08-06T11:05:42.365Z,821.13
2017-08-06T11:06:43.018Z,821.14
2017-08-06T11:07:43.640Z,821.15
2017-08-06T11:08:44.260Z,821.09
2017-08-06T11:09:44.883Z,821.11
2017-08-06T11:10:45.810Z,821.12
2017-08-06T11:11:46.428Z,821.10
2017-08-06T11:12:47.048Z,821.11
2017-08-06T11:13:47.675Z,821.13
2017-08-06T11:14:48.295Z,821.21
2017-08-06T11:15:49.220Z,821.16
2017-08-06T11:16:49.838Z,821.16
2017-08-06T11:17:50.493Z,821.12
2017-08-06T11:18:51.146Z,821.10
2017-08-06T11:19:51.772Z,821.10
2017-08-06T11:20:52.693Z,821.07
2017-08-06T11:21:53.314Z,821.15
2017-08-06T11:22:53.940Z,821.16
2017-08-06T11:23:54.557Z,821.07
2017-08-06T11:24:55.212Z,821.11
2017-08-06T11:25:56.085Z,821.12
2017-08-06T11:26:56.712Z,821.06
2017-08-06T11:27:57.330Z,821.03
2017-08-06T11:28:57.983Z,821.02
2017-08-06T11:29:58.634Z,821.03
2017-08-06T11:30:59.513Z,821.03
2017-08-06T11:32:00.130Z,821.07
2017-08-06T11:33:00.751Z,821.03
2017-08-06T11:34:01.374Z,821.04
2017-08-06T11:35:02.000Z,820.93
2017-08-06T11:36:02.870Z,820.97
2017-08-06T11:37:03.495Z,821.01
2017-08-06T11:38:04.113Z,820.96
2017-08-06T11:39:04.735Z,821.02
2017-08-06T11:40:05.356Z,820.98
2017-08-06T11:41:06.282Z,821.00
2017-08-06T11:42:06.900Z,821.02
2017-08-06T11:43:07.522Z,820.96
2017-08-06T11:44:08.143Z,821.03
2017-08-06T11:45:08.764Z,820.99
2017-08-06T11:46:09.635Z,820.99
2017-08-06T11:47:10.263Z,821.00
2017-08-06T11:48:10.890Z,820.98
2017-08-06T11:49:11.508Z,820.92
2017-08-06T11:50:12.127Z,820.90
2017-08-06T11:51:12.997Z,820.90
2017-08-06T11:52:13.625Z,820.97
2017-08-06T11:53:14.242Z,820.96
2017-08-06T11:54:14.871Z,820.96
2017-08-06T11:55:15.526Z,820.91
2017-08-06T11:56:16.394Z,821.00
2017-08-06T11:57:17.014Z,820.96
2017-08-06T11:58:17.640Z,820.98
2017-08-06T11:59:18.293Z,820.91
2017-08-06T12:00:18.916Z,820.84
2017-08-06T12:01:19.842Z,820.95
2017-08-06T12:02:20.459Z,820.93
2017-08-06T12:03:21.084Z,820.94
2017-08-06T12:04:21.703Z,820.89
2017-08-06T12:05:22.326Z,820.81
2017-08-06T12:06:23.246Z,820.79
2017-08-06T12:07:23.867Z,820.79
2017-08-06T12:08:24.495Z,820.84
2017-08-06T12:09:25.118Z,820.78
2017-08-06T12:10:25.737Z,820.78
2017-08-06T12:11:26.658Z,820.76
2017-08-06T12:12:27.279Z,820.73
2017-08-06T12:13:27.900Z,820.72
2017-08-06T12:14:28.529Z,820.78
2017-08-06T12:15:29.145Z,820.77
2017-08-06T12:16:30.024Z,820.80
2017-08-06T12:17:30.680Z,820.78
2017-08-06T12:18:31.308Z,820.82
2017-08-06T12:19:31.926Z,820.78
2017-08-06T12:20:32.580Z,820.77
2017-08-06T12:21:33.509Z,820.81
2017-08-06T12:22:34.129Z,820.75
2017-08-06T12:23:34.749Z,820.81
2017-08-06T12:24:35.404Z,820.81
2017-08-06T12:25:36.032Z,820.83
2017-08-06T12:26:36.900Z,820.80
2017-08-06T12:27:37.522Z,820.79
2017-08-06T12:28:38.144Z,820.81
2017-08-06T12:29:38.766Z,820.83
2017-08-06T12:30:39.393Z,820.87
2017-08-06T12:31:40.311Z,820.83
2017-08-06T12:32:40.938Z,820.86
2017-08-06T12:33:41.559Z,820.89
2017-08-06T12:34:42.180Z,820.87
2017-08-06T12:35:42.801Z,820.85
2017-08-06T12:36:43.673Z,820.97